Time;durP1;ratioP1;P1;durP2;ratioP2;P2;SDS_P1;SDS_P2;PMS_P1;PMS_P2;Temp;Humidity;BMP_temperature;BMP_pressure;BME280_temperature;BME280_humidity;BME280_pressure;Samples;Min_cycle;Max_cycle;Signal;HPM_P1;HPM_P2
2022/06/15 00:01:30;;;;;;;7.75;3.17;;;16.90;75.40;;;;;;4981802;28;20085;-69
2022/06/15 00:03:55;;;;;;;6.18;3.08;;;16.80;75.70;;;;;;4967380;28;20523;-69
2022/06/15 00:06:24;;;;;;;6.78;2.97;;;16.70;76.20;;;;;;4968020;28;20069;-69
2022/06/15 00:08:53;;;;;;;7.07;3.00;;;16.80;75.80;;;;;;4981140;28;20031;-69
2022/06/15 00:11:43;;;;;;;8.75;3.08;;;16.90;75.90;;;;;;4963758;28;20031;-69
2022/06/15 00:14:14;;;;;;;7.68;3.10;;;16.90;75.80;;;;;;4970203;28;20034;-70
2022/06/15 00:16:40;;;;;;;7.93;3.40;;;16.80;76.00;;;;;;4972967;28;20027;-69
2022/06/15 00:19:06;;;;;;;8.73;3.42;;;16.70;76.10;;;;;;4982703;28;20305;-70
2022/06/15 00:21:33;;;;;;;11.10;3.67;;;16.70;76.50;;;;;;4974388;28;20034;-69
2022/06/15 00:23:59;;;;;;;8.85;3.42;;;16.70;76.20;;;;;;4976155;28;20041;-69
2022/06/15 00:26:26;;;;;;;7.47;3.05;;;16.70;76.70;;;;;;4974499;28;21221;-68
2022/06/15 00:28:52;;;;;;;8.98;3.70;;;16.60;76.80;;;;;;4976868;28;20046;-69
2022/06/15 00:31:19;;;;;;;7.55;3.85;;;16.50;76.70;;;;;;4971118;28;20375;-69
2022/06/15 00:33:45;;;;;;;10.27;3.67;;;16.50;77.20;;;;;;4966025;28;20511;-70
2022/06/15 00:36:14;;;;;;;7.30;3.42;;;16.40;77.40;;;;;;4969378;28;20435;-70
2022/06/15 00:38:42;;;;;;;7.63;3.33;;;16.50;77.30;;;;;;4973447;28;20034;-69
2022/06/15 00:41:13;;;;;;;9.13;3.30;;;16.50;77.30;;;;;;4967151;28;20420;-69
2022/06/15 00:44:01;;;;;;;9.85;3.60;;;16.60;77.10;;;;;;4968589;28;20126;-69
2022/06/15 00:46:37;;;;;;;6.85;3.55;;;16.50;77.50;;;;;;4967589;28;20054;-69
2022/06/15 00:49:05;;;;;;;7.40;3.50;;;16.50;77.30;;;;;;4961808;28;20031;-70
2022/06/15 00:51:35;;;;;;;7.90;3.25;;;16.50;78.00;;;;;;4974278;28;20097;-70
2022/06/15 00:54:02;;;;;;;6.40;3.17;;;16.40;78.00;;;;;;4976729;28;20259;-69
2022/06/15 00:56:30;;;;;;;7.05;2.95;;;16.40;78.10;;;;;;4980393;28;20077;-69
2022/06/15 00:59:03;;;;;;;8.02;3.30;;;16.40;78.50;;;;;;4973349;28;20113;-70
2022/06/15 01:01:29;;;;;;;9.98;3.40;;;16.40;78.30;;;;;;4968326;28;20117;-69
2022/06/15 01:03:57;;;;;;;7.30;3.30;;;16.50;78.00;;;;;;4978706;28;20487;-69
2022/06/15 01:06:39;;;;;;;9.45;4.03;;;16.60;78.10;;;;;;4965985;28;20036;-69
2022/06/15 01:09:08;;;;;;;10.05;3.72;;;16.60;77.80;;;;;;4991283;28;20086;-70
2022/06/15 01:11:59;;;;;;;8.05;3.30;;;16.70;77.50;;;;;;4967087;28;20405;-70
2022/06/15 01:14:50;;;;;;;8.95;3.88;;;16.70;77.80;;;;;;4969344;28;20031;-69
2022/06/15 01:17:29;;;;;;;8.23;3.33;;;16.60;78.10;;;;;;4958400;28;20031;-69
2022/06/15 01:20:32;;;;;;;6.18;3.47;;;16.50;78.70;;;;;;4959715;28;20035;-69
2022/06/15 01:23:26;;;;;;;7.50;3.60;;;16.30;79.20;;;;;;4966050;28;20034;-70
2022/06/15 01:26:13;;;;;;;9.10;3.97;;;16.20;79.20;;;;;;4973061;28;20038;-69
2022/06/15 01:28:44;;;;;;;6.35;3.20;;;16.10;80.40;;;;;;4974261;28;20096;-69
2022/06/15 01:31:47;;;;;;;8.52;3.47;;;15.90;80.60;;;;;;4970022;28;20026;-69
2022/06/15 01:34:19;;;;;;;7.35;3.60;;;15.90;80.70;;;;;;4974352;28;20026;-69
2022/06/15 01:37:05;;;;;;;6.40;3.65;;;15.70;81.30;;;;;;4964129;28;20039;-69
2022/06/15 01:39:44;;;;;;;6.45;3.78;;;15.50;82.10;;;;;;4969032;28;20428;-68
2022/06/15 01:42:17;;;;;;;9.20;3.75;;;15.30;82.80;;;;;;4963083;28;20034;-69
2022/06/15 01:44:49;;;;;;;8.48;3.47;;;15.00;83.50;;;;;;4967698;28;20520;-68
2022/06/15 01:47:20;;;;;;;6.57;3.47;;;14.90;84.50;;;;;;4969967;28;20054;-70
2022/06/15 01:49:57;;;;;;;7.25;3.47;;;14.70;85.20;;;;;;4975216;28;20065;-70
2022/06/15 01:52:28;;;;;;;8.07;3.42;;;14.40;86.20;;;;;;4965101;28;20045;-70
2022/06/15 01:55:13;;;;;;;6.63;3.88;;;14.30;86.70;;;;;;4962954;28;20102;-69
2022/06/15 01:57:41;;;;;;;9.23;4.05;;;14.10;87.50;;;;;;4969140;28;20432;-70
2022/06/15 02:00:17;;;;;;;8.98;4.47;;;14.00;87.90;;;;;;5014299;28;20032;-69
2022/06/15 02:03:20;;;;;;;10.32;3.80;;;14.00;87.90;;;;;;5009771;28;20034;-70
2022/06/15 02:05:52;;;;;;;12.00;3.90;;;14.10;87.70;;;;;;4955973;28;20039;-70
2022/06/15 02:08:24;;;;;;;8.88;4.05;;;14.10;87.60;;;;;;4971954;28;20054;-70
2022/06/15 02:11:15;;;;;;;7.75;3.80;;;14.00;87.90;;;;;;4982834;28;20031;-69
2022/06/15 02:14:01;;;;;;;12.60;4.70;;;13.90;88.00;;;;;;4959615;28;20108;-70
2022/06/15 02:16:33;;;;;;;6.20;3.70;;;13.80;88.50;;;;;;4973658;28;20046;-69
2022/06/15 02:19:03;;;;;;;8.00;3.80;;;13.70;89.30;;;;;;4966072;28;20789;-69
2022/06/15 02:21:30;;;;;;;9.50;4.00;;;13.50;90.30;;;;;;4967839;28;20035;-69
2022/06/15 02:24:05;;;;;;;10.05;4.32;;;13.30;91.10;;;;;;4969320;28;20054;-70
2022/06/15 02:26:33;;;;;;;10.13;4.13;;;13.10;92.10;;;;;;4974938;28;20530;-70
2022/06/15 02:29:17;;;;;;;11.27;4.70;;;13.00;92.50;;;;;;4969418;28;20034;-70
2022/06/15 02:31:43;;;;;;;7.82;4.30;;;12.90;92.70;;;;;;4973401;28;20023;-69
2022/06/15 02:34:10;;;;;;;8.60;4.07;;;12.90;92.90;;;;;;4961458;28;20073;-69
2022/06/15 02:36:36;;;;;;;7.30;4.30;;;13.10;92.50;;;;;;4960850;28;20047;-69
2022/06/15 02:39:04;;;;;;;9.30;4.10;;;13.20;92.10;;;;;;4962345;28;20421;-69
2022/06/15 02:41:30;;;;;;;9.10;3.97;;;13.20;91.80;;;;;;4971531;28;20088;-70
2022/06/15 02:43:59;;;;;;;7.50;4.03;;;13.20;91.70;;;;;;4964188;28;20323;-69
2022/06/15 02:46:26;;;;;;;10.35;4.57;;;13.10;92.10;;;;;;4955186;28;20332;-69
2022/06/15 02:48:53;;;;;;;7.68;4.72;;;13.10;92.90;;;;;;4969440;28;20507;-69
2022/06/15 02:51:40;;;;;;;8.15;4.47;;;13.10;92.90;;;;;;4972991;28;20054;-69
2022/06/15 02:54:24;;;;;;;6.70;3.80;;;13.00;93.10;;;;;;4965793;28;20042;-69
2022/06/15 02:56:50;;;;;;;8.27;4.13;;;13.00;93.30;;;;;;4963289;28;20035;-69
2022/06/15 02:59:16;;;;;;;8.45;4.20;;;13.00;93.50;;;;;;4969542;28;20038;-69
2022/06/15 03:01:42;;;;;;;8.38;4.03;;;13.10;93.10;;;;;;4960989;28;20050;-69
2022/06/15 03:04:09;;;;;;;8.68;4.32;;;13.20;92.50;;;;;;4968944;28;20030;-69
2022/06/15 03:06:35;;;;;;;10.32;4.70;;;13.10;92.40;;;;;;4977428;28;20305;-69
2022/06/15 03:09:00;;;;;;;8.70;4.57;;;13.00;92.80;;;;;;4974447;28;20047;-69
2022/06/15 03:11:26;;;;;;;10.18;4.40;;;12.80;93.20;;;;;;4972287;28;20042;-70
2022/06/15 03:13:53;;;;;;;9.30;4.93;;;12.60;93.50;;;;;;4966623;28;20029;-69
2022/06/15 03:16:20;;;;;;;8.98;4.40;;;12.50;94.20;;;;;;4960774;28;20063;-69
2022/06/15 03:18:48;;;;;;;9.68;4.97;;;12.40;94.70;;;;;;4971066;28;20031;-69
2022/06/15 03:21:15;;;;;;;10.43;4.50;;;12.40;94.90;;;;;;4973886;28;20031;-69
2022/06/15 03:23:40;;;;;;;7.05;4.63;;;12.30;95.20;;;;;;4966068;28;20035;-69
2022/06/15 03:26:06;;;;;;;8.77;4.90;;;12.20;95.30;;;;;;4974987;28;20030;-69
2022/06/15 03:28:34;;;;;;;9.35;4.68;;;12.10;95.80;;;;;;4966427;28;20057;-69
2022/06/15 03:31:03;;;;;;;8.73;4.47;;;12.10;95.90;;;;;;4972673;28;20088;-69
2022/06/15 03:33:29;;;;;;;7.70;4.57;;;12.10;96.00;;;;;;4984489;28;20060;-68
2022/06/15 03:35:55;;;;;;;8.32;5.35;;;12.00;96.00;;;;;;4955540;28;20423;-69
2022/06/15 03:38:22;;;;;;;11.55;5.53;;;12.00;96.20;;;;;;4965456;28;20034;-69
2022/06/15 03:40:48;;;;;;;11.32;4.78;;;11.90;96.30;;;;;;4969072;28;20046;-69
2022/06/15 03:43:15;;;;;;;9.90;4.65;;;11.90;96.40;;;;;;4962406;28;20422;-69
2022/06/15 03:45:44;;;;;;;11.48;5.18;;;11.80;96.40;;;;;;4969205;28;20436;-69
2022/06/15 03:48:11;;;;;;;9.38;4.63;;;11.80;96.50;;;;;;4960498;28;20058;-69
2022/06/15 03:50:37;;;;;;;9.73;5.25;;;11.70;96.40;;;;;;4961993;28;20040;-69
2022/06/15 03:53:04;;;;;;;12.77;5.28;;;11.70;96.50;;;;;;4968390;28;20103;-69
2022/06/15 03:55:31;;;;;;;9.75;4.88;;;11.80;96.50;;;;;;4975321;28;20027;-69
2022/06/15 03:57:57;;;;;;;9.43;4.82;;;11.80;96.70;;;;;;4975579;28;20062;-69
2022/06/15 04:00:26;;;;;;;10.52;5.13;;;11.90;96.70;;;;;;4978375;28;20419;-70
2022/06/15 04:02:52;;;;;;;12.77;5.20;;;12.00;96.70;;;;;;4960498;28;20037;-69
2022/06/15 04:05:23;;;;;;;9.05;5.13;;;12.10;96.70;;;;;;4975061;28;20064;-70
2022/06/15 04:10:35;;;;;;;11.73;4.72;;;12.30;96.70;;;;;;4966791;28;20076;-69
2022/06/15 04:13:03;;;;;;;7.32;4.45;;;12.40;96.50;;;;;;4974079;28;20030;-69
2022/06/15 04:15:29;;;;;;;7.78;4.68;;;12.50;96.30;;;;;;4966354;28;20118;-70
2022/06/15 04:17:57;;;;;;;8.77;4.85;;;12.60;96.20;;;;;;4969927;28;20121;-69
2022/06/15 04:20:40;;;;;;;9.07;4.57;;;12.70;95.90;;;;;;4973328;28;20088;-70
2022/06/15 04:23:14;;;;;;;9.23;4.57;;;12.90;95.80;;;;;;4973687;28;20404;-69
2022/06/15 04:25:48;;;;;;;11.88;4.95;;;13.00;95.50;;;;;;4961298;28;20110;-70
2022/06/15 04:28:16;;;;;;;8.40;4.40;;;13.10;95.40;;;;;;4957839;28;20059;-70
2022/06/15 04:30:44;;;;;;;9.63;4.82;;;13.00;95.50;;;;;;4981911;28;20057;-69
2022/06/15 04:33:11;;;;;;;8.77;4.72;;;13.00;95.80;;;;;;4977071;28;20033;-69
2022/06/15 04:35:37;;;;;;;11.77;4.68;;;13.00;96.10;;;;;;4973731;28;20031;-69
2022/06/15 04:38:03;;;;;;;10.55;5.53;;;13.00;95.90;;;;;;4976922;28;20041;-69
2022/06/15 04:40:29;;;;;;;7.18;4.60;;;13.00;96.10;;;;;;4975970;28;20064;-69
2022/06/15 04:42:55;;;;;;;7.03;4.78;;;12.90;96.20;;;;;;4974402;28;20051;-70
2022/06/15 04:45:21;;;;;;;8.93;4.70;;;12.80;96.40;;;;;;4973839;28;20030;-69
2022/06/15 04:47:46;;;;;;;8.77;4.90;;;12.70;96.40;;;;;;4972071;28;20027;-70
2022/06/15 04:50:13;;;;;;;7.45;4.82;;;12.60;96.40;;;;;;4975067;28;20512;-70
2022/06/15 04:52:41;;;;;;;10.77;5.20;;;12.60;96.70;;;;;;4977339;28;20027;-70
2022/06/15 04:55:15;;;;;;;7.40;4.55;;;12.70;96.60;;;;;;4976378;28;20027;-69
2022/06/15 04:57:43;;;;;;;9.85;5.10;;;12.70;96.80;;;;;;4980142;28;20035;-69
2022/06/15 05:00:14;;;;;;;11.93;4.78;;;12.70;96.70;;;;;;4969021;28;20114;-70
2022/06/15 05:02:42;;;;;;;11.25;5.13;;;12.70;96.60;;;;;;4973917;28;20083;-70
2022/06/15 05:05:07;;;;;;;11.82;5.18;;;12.80;96.70;;;;;;5038219;28;20052;-71
2022/06/15 05:07:33;;;;;;;9.05;5.20;;;12.90;96.70;;;;;;4965419;28;20392;-70
2022/06/15 05:09:59;;;;;;;12.68;4.93;;;13.10;96.90;;;;;;4972432;28;20076;-70
2022/06/15 05:12:24;;;;;;;9.48;4.78;;;13.20;96.80;;;;;;4975915;28;20041;-69
2022/06/15 05:14:51;;;;;;;7.40;4.13;;;13.40;97.00;;;;;;4962820;28;20042;-70
2022/06/15 05:17:21;;;;;;;9.52;5.25;;;13.60;96.70;;;;;;4989862;28;20361;-69
2022/06/15 05:19:47;;;;;;;9.52;5.03;;;13.70;96.80;;;;;;4964860;28;20042;-69
2022/06/15 05:22:18;;;;;;;11.45;4.97;;;13.80;96.80;;;;;;5057918;28;20222;-70
2022/06/15 05:24:43;;;;;;;8.32;5.00;;;14.00;96.70;;;;;;4968081;28;20032;-69
2022/06/15 05:27:09;;;;;;;7.72;4.57;;;14.20;96.70;;;;;;4979157;28;20018;-70
2022/06/15 05:29:36;;;;;;;6.53;4.22;;;14.40;96.50;;;;;;4973968;28;20027;-70
2022/06/15 05:32:06;;;;;;;7.85;3.63;;;14.60;96.40;;;;;;4974518;28;20371;-70
2022/06/15 05:34:33;;;;;;;7.50;4.30;;;14.80;96.00;;;;;;4962481;28;20026;-70
2022/06/15 05:36:59;;;;;;;8.05;3.95;;;15.10;95.70;;;;;;4977521;28;20115;-69
2022/06/15 05:39:25;;;;;;;7.95;4.20;;;15.30;95.00;;;;;;4980635;28;20030;-68
2022/06/15 05:41:51;;;;;;;7.43;3.95;;;15.50;94.00;;;;;;4975029;28;20327;-69
2022/06/15 05:46:46;;;;;;;8.75;4.63;;;15.90;93.40;;;;;;5045465;28;20028;-69
2022/06/15 05:49:12;;;;;;;6.72;4.03;;;16.00;92.40;;;;;;4970778;28;20030;-69
2022/06/15 05:51:40;;;;;;;7.25;3.70;;;16.20;92.80;;;;;;4976702;28;20034;-69
2022/06/15 05:54:07;;;;;;;9.20;4.47;;;16.40;92.30;;;;;;4966914;28;20023;-69
2022/06/15 05:56:33;;;;;;;5.93;3.85;;;16.50;92.10;;;;;;4971132;28;20416;-69
2022/06/15 05:58:59;;;;;;;6.72;3.80;;;16.60;90.70;;;;;;4969031;28;20031;-69
2022/06/15 06:01:29;;;;;;;5.95;3.72;;;16.80;89.90;;;;;;4972908;28;20400;-69
2022/06/15 06:03:55;;;;;;;6.50;3.60;;;17.10;88.90;;;;;;4959813;28;20050;-69
2022/06/15 06:06:21;;;;;;;9.80;4.45;;;17.20;88.50;;;;;;4967365;28;20034;-69
2022/06/15 06:08:47;;;;;;;10.45;3.92;;;17.40;88.60;;;;;;4963373;28;20106;-69
2022/06/15 06:11:13;;;;;;;9.07;4.15;;;17.60;88.50;;;;;;4975550;28;20102;-69
2022/06/15 06:13:38;;;;;;;9.93;3.80;;;17.70;86.80;;;;;;4994091;28;20372;-69
2022/06/15 06:16:04;;;;;;;8.55;3.90;;;17.80;85.80;;;;;;4968161;28;20026;-69
2022/06/15 06:18:30;;;;;;;8.75;3.70;;;17.90;84.90;;;;;;4966060;28;20026;-69
2022/06/15 06:20:55;;;;;;;8.02;3.45;;;18.10;84.30;;;;;;4963024;28;20114;-69
2022/06/15 06:23:21;;;;;;;10.38;4.35;;;18.30;83.60;;;;;;4965510;28;20074;-69
2022/06/15 06:25:50;;;;;;;6.88;3.70;;;18.30;83.10;;;;;;4974936;28;20030;-69
2022/06/15 06:28:33;;;;;;;7.80;4.05;;;18.50;82.80;;;;;;4975278;28;20023;-69
2022/06/15 06:31:03;;;;;;;6.95;3.50;;;18.60;81.40;;;;;;4967265;28;20023;-69
2022/06/15 06:33:31;;;;;;;9.80;4.15;;;18.80;82.40;;;;;;4953988;28;20035;-69
2022/06/15 06:36:00;;;;;;;6.35;3.20;;;18.90;82.60;;;;;;4955497;28;20089;-67
2022/06/15 06:38:25;;;;;;;6.72;3.80;;;19.00;82.20;;;;;;4967775;28;20076;-67
2022/06/15 06:40:53;;;;;;;7.07;3.75;;;19.10;81.40;;;;;;4994104;28;20420;-68
2022/06/15 06:43:19;;;;;;;8.90;3.88;;;19.10;82.00;;;;;;4976264;28;20031;-68
2022/06/15 06:45:45;;;;;;;7.22;3.90;;;19.20;81.80;;;;;;4974563;28;20416;-69
2022/06/15 06:48:12;;;;;;;6.35;3.53;;;19.30;81.50;;;;;;4972327;28;20023;-69
2022/06/15 06:50:40;;;;;;;7.90;3.88;;;19.30;83.80;;;;;;4973994;28;20041;-68
2022/06/15 06:53:10;;;;;;;7.03;4.20;;;19.30;84.50;;;;;;4974268;28;20432;-69
2022/06/15 06:55:36;;;;;;;6.40;3.83;;;19.40;84.80;;;;;;4973611;28;20415;-70
2022/06/15 06:58:02;;;;;;;6.68;3.50;;;19.50;83.60;;;;;;4975056;28;20119;-69
2022/06/15 07:00:30;;;;;;;10.65;4.70;;;19.60;85.00;;;;;;5030217;28;20072;-69
2022/06/15 07:03:01;;;;;;;7.05;3.85;;;19.80;83.80;;;;;;4965692;28;20027;-69
2022/06/15 07:05:28;;;;;;;7.50;3.67;;;19.80;83.60;;;;;;4968159;28;20023;-69
2022/06/15 07:07:54;;;;;;;8.02;4.38;;;19.90;83.10;;;;;;4974631;28;20034;-69
2022/06/15 07:10:20;;;;;;;7.18;3.40;;;20.10;83.80;;;;;;4970214;28;20038;-69
2022/06/15 07:12:45;;;;;;;7.90;3.83;;;20.20;83.10;;;;;;4974311;28;20031;-69
2022/06/15 07:15:13;;;;;;;8.07;4.00;;;20.40;82.10;;;;;;4972450;28;20488;-70
2022/06/15 07:17:40;;;;;;;7.45;3.50;;;20.50;80.60;;;;;;4972667;28;20023;-69
2022/06/15 07:20:07;;;;;;;7.25;3.83;;;20.70;80.40;;;;;;4964693;28;20126;-69
2022/06/15 07:22:34;;;;;;;8.73;3.92;;;20.90;80.10;;;;;;4971933;28;20027;-69
2022/06/15 07:25:00;;;;;;;8.55;3.72;;;21.60;79.40;;;;;;4958098;28;20220;-69
2022/06/15 07:27:26;;;;;;;8.77;3.47;;;22.90;76.60;;;;;;4954916;28;20023;-69
2022/06/15 07:29:53;;;;;;;6.75;3.40;;;24.20;72.50;;;;;;4986588;28;20038;-69
2022/06/15 07:32:19;;;;;;;6.47;3.47;;;25.10;69.70;;;;;;4952125;28;21966;-69
2022/06/15 07:34:45;;;;;;;8.68;3.10;;;25.80;67.60;;;;;;4951762;28;20096;-69
2022/06/15 07:37:11;;;;;;;7.85;3.47;;;26.50;67.90;;;;;;4952182;28;20062;-69
2022/06/15 07:39:39;;;;;;;6.55;2.63;;;26.70;66.90;;;;;;4951585;28;20044;-70
2022/06/15 07:42:07;;;;;;;10.00;3.33;;;26.80;66.90;;;;;;4947984;28;20088;-69
2022/06/15 07:44:34;;;;;;;8.30;3.08;;;27.20;66.10;;;;;;4946244;28;20114;-69
2022/06/15 07:49:59;;;;;;;6.70;3.25;;;27.70;64.90;;;;;;4969233;28;20042;-69
2022/06/15 07:52:30;;;;;;;4.72;2.40;;;27.60;65.10;;;;;;5011758;28;20042;-69
2022/06/15 07:54:56;;;;;;;7.43;2.92;;;27.80;64.90;;;;;;4994819;28;20038;-69
2022/06/15 07:57:22;;;;;;;5.85;2.65;;;28.70;62.80;;;;;;4973516;28;20030;-69
2022/06/15 07:59:50;;;;;;;6.05;2.72;;;29.00;62.60;;;;;;4986440;28;20035;-68
2022/06/15 08:02:16;;;;;;;5.97;2.90;;;29.20;62.50;;;;;;4969350;28;20034;-72
2022/06/15 08:04:42;;;;;;;7.57;3.35;;;28.50;64.00;;;;;;4980780;28;20046;-69
2022/06/15 08:07:10;;;;;;;7.53;3.30;;;28.00;65.60;;;;;;4988585;28;20427;-69
2022/06/15 08:09:36;;;;;;;5.45;2.80;;;28.40;66.50;;;;;;4973509;28;20023;-69
2022/06/15 08:12:18;;;;;;;6.18;2.97;;;28.70;63.80;;;;;;4972519;28;20038;-69
2022/06/15 08:14:53;;;;;;;6.55;2.90;;;29.20;61.50;;;;;;4973854;28;20026;-69
2022/06/15 08:17:24;;;;;;;7.55;3.10;;;29.10;61.60;;;;;;4967943;28;20022;-69
2022/06/15 08:19:54;;;;;;;8.35;3.00;;;28.70;60.50;;;;;;4973949;28;20035;-69
2022/06/15 08:22:20;;;;;;;5.43;2.95;;;28.60;63.40;;;;;;4971121;28;20030;-69
2022/06/15 08:24:47;;;;;;;9.77;3.50;;;29.30;63.50;;;;;;4969983;28;20027;-69
2022/06/15 08:27:15;;;;;;;9.80;3.10;;;29.70;62.50;;;;;;4971343;28;20419;-69
2022/06/15 08:29:42;;;;;;;6.40;3.08;;;29.50;60.00;;;;;;4982449;28;20362;-69
2022/06/15 08:32:09;;;;;;;8.05;3.33;;;29.00;60.70;;;;;;4972317;28;20113;-70
2022/06/15 08:34:37;;;;;;;6.68;3.30;;;28.80;61.70;;;;;;4975568;28;20092;-69
2022/06/15 08:37:06;;;;;;;6.80;2.95;;;28.50;62.10;;;;;;4964186;28;20459;-69
2022/06/15 08:39:32;;;;;;;5.38;2.83;;;28.40;61.60;;;;;;4986173;28;20030;-69
2022/06/15 08:42:19;;;;;;;9.35;3.20;;;28.60;61.40;;;;;;4963733;28;20054;-69
2022/06/15 08:45:02;;;;;;;5.97;2.70;;;29.80;59.20;;;;;;4957302;29;20437;-69
2022/06/15 08:47:51;;;;;;;9.40;3.13;;;29.70;57.90;;;;;;4972421;28;20328;-69
2022/06/15 08:50:19;;;;;;;7.85;2.80;;;29.30;59.20;;;;;;4976513;28;20019;-70
2022/06/15 08:52:50;;;;;;;6.93;2.88;;;29.60;59.60;;;;;;4973665;28;20035;-69
2022/06/15 08:55:28;;;;;;;9.48;3.38;;;29.70;57.20;;;;;;4976771;28;20023;-69
2022/06/15 08:57:59;;;;;;;7.03;2.88;;;29.70;57.70;;;;;;4975618;28;20023;-69
2022/06/15 09:00:34;;;;;;;7.05;3.33;;;29.50;57.20;;;;;;4976319;28;20030;-69
2022/06/15 09:03:18;;;;;;;7.15;2.95;;;29.90;55.90;;;;;;4955955;28;20035;-69
2022/06/15 09:06:10;;;;;;;6.38;2.42;;;29.50;56.80;;;;;;4966136;28;20026;-69
2022/06/15 09:08:51;;;;;;;7.20;2.72;;;29.80;56.80;;;;;;4974060;28;20045;-69
2022/06/15 09:11:29;;;;;;;8.23;2.47;;;31.00;54.90;;;;;;4976482;28;20030;-69
2022/06/15 09:14:32;;;;;;;7.80;2.70;;;31.50;54.10;;;;;;4976164;28;20027;-69
2022/06/15 09:17:22;;;;;;;4.85;2.55;;;30.40;54.80;;;;;;4985214;28;20031;-70
2022/06/15 09:20:10;;;;;;;7.72;2.78;;;29.30;57.50;;;;;;4994257;28;20031;-69
2022/06/15 09:22:43;;;;;;;5.40;2.40;;;28.90;56.80;;;;;;4975351;28;20092;-69
2022/06/15 09:25:23;;;;;;;6.38;2.63;;;29.30;57.80;;;;;;4972920;28;20034;-69
2022/06/15 09:28:03;;;;;;;8.30;2.60;;;30.30;57.00;;;;;;4973764;28;20087;-69
2022/06/15 09:30:33;;;;;;;4.70;2.40;;;31.10;54.90;;;;;;4958073;28;20027;-69
2022/06/15 09:33:10;;;;;;;6.13;2.30;;;31.10;55.00;;;;;;4975749;28;20064;-69
2022/06/15 09:35:41;;;;;;;6.78;2.78;;;31.10;54.30;;;;;;4973308;28;20065;-69
2022/06/15 09:38:10;;;;;;;6.00;2.35;;;31.00;55.30;;;;;;4980913;28;20156;-69
2022/06/15 09:40:45;;;;;;;6.50;2.40;;;31.20;54.20;;;;;;4985749;28;20027;-68
2022/06/15 09:43:48;;;;;;;6.05;2.40;;;31.20;54.50;;;;;;4972146;28;20554;-68
2022/06/15 09:46:48;;;;;;;8.02;2.90;;;32.10;53.80;;;;;;5007824;28;20027;-69
2022/06/15 09:49:37;;;;;;;4.93;2.10;;;32.90;51.30;;;;;;4965991;28;20027;-69
2022/06/15 09:52:16;;;;;;;6.28;2.20;;;33.00;51.20;;;;;;4974078;28;20037;-69
2022/06/15 09:55:06;;;;;;;6.20;2.55;;;33.10;50.80;;;;;;4963698;28;20460;-69
2022/06/15 09:57:33;;;;;;;7.50;2.80;;;32.30;52.50;;;;;;4968105;28;20034;-69
2022/06/15 10:00:02;;;;;;;5.38;2.17;;;32.00;51.30;;;;;;4972918;28;20031;-69
2022/06/15 10:02:34;;;;;;;7.55;2.83;;;31.60;52.60;;;;;;4975631;28;20027;-69
2022/06/15 10:05:04;;;;;;;6.43;2.20;;;31.80;51.70;;;;;;4970556;28;20362;-69
2022/06/15 10:07:41;;;;;;;6.45;2.30;;;31.30;52.20;;;;;;4973920;28;20027;-69
2022/06/15 10:10:18;;;;;;;6.32;1.92;;;31.70;52.60;;;;;;4974534;28;20362;-69
2022/06/15 10:12:58;;;;;;;7.70;2.42;;;31.60;51.60;;;;;;4964151;28;20043;-69
2022/06/15 10:15:35;;;;;;;6.70;2.47;;;32.30;52.60;;;;;;4970243;28;20049;-69
2022/06/15 10:18:17;;;;;;;5.95;1.92;;;32.00;48.70;;;;;;4974178;28;20316;-69
2022/06/15 10:20:59;;;;;;;8.00;2.30;;;31.20;51.10;;;;;;4955868;28;20160;-69
2022/06/15 10:23:50;;;;;;;4.72;2.00;;;31.40;51.50;;;;;;4955854;28;20407;-69
2022/06/15 10:26:44;;;;;;;4.30;1.92;;;31.60;48.60;;;;;;4958130;28;20080;-68
2022/06/15 10:29:15;;;;;;;5.32;2.10;;;31.60;50.00;;;;;;4968690;28;20032;-68
2022/06/15 10:31:56;;;;;;;4.93;1.70;;;31.30;49.50;;;;;;4956003;29;20132;-70
2022/06/15 10:34:27;;;;;;;4.65;1.92;;;31.20;49.10;;;;;;4955811;28;20026;-69
2022/06/15 10:36:57;;;;;;;4.32;1.77;;;31.20;47.70;;;;;;4968395;28;20070;-70
2022/06/15 10:39:27;;;;;;;4.18;1.55;;;31.30;47.40;;;;;;4982607;28;20043;-69
2022/06/15 10:42:06;;;;;;;4.25;1.70;;;31.00;49.10;;;;;;4958902;28;20031;-70
2022/06/15 10:44:37;;;;;;;4.30;1.30;;;31.20;46.70;;;;;;5013610;28;20016;-70
2022/06/15 10:47:40;;;;;;;3.50;1.58;;;31.50;48.20;;;;;;4981783;28;20019;-70
2022/06/15 10:50:17;;;;;;;4.22;1.52;;;31.20;46.60;;;;;;4969502;28;20466;-70
2022/06/15 10:52:52;;;;;;;5.68;1.70;;;30.80;46.30;;;;;;4955836;28;20106;-69
2022/06/15 11:04:22;;;;;;;6.72;1.60;;;31.40;48.80;;;;;;4972060;28;20501;-69
2022/06/15 11:07:04;;;;;;;7.35;1.60;;;31.40;45.80;;;;;;4981028;28;20038;-69
2022/06/15 11:09:56;;;;;;;4.35;1.77;;;30.70;47.40;;;;;;5075208;28;20024;-69
2022/06/15 11:12:40;;;;;;;3.15;1.40;;;30.70;46.50;;;;;;5006781;28;20316;-69
2022/06/15 11:18:41;;;;;;;4.82;1.60;;;31.30;46.90;;;;;;4974878;28;20075;-68
2022/06/15 11:21:15;;;;;;;3.95;1.42;;;31.50;47.10;;;;;;4978651;28;20029;-69
2022/06/15 11:23:53;;;;;;;4.60;1.60;;;30.80;47.90;;;;;;4954743;28;20023;-69
2022/06/15 11:29:41;;;;;;;4.65;1.70;;;31.00;49.00;;;;;;4956644;28;20061;-69
2022/06/15 11:32:36;;;;;;;5.28;1.52;;;31.00;47.70;;;;;;4973849;28;20026;-70
2022/06/15 11:35:14;;;;;;;4.47;1.60;;;31.00;45.30;;;;;;4995245;28;20143;-70
2022/06/15 11:37:57;;;;;;;2.90;1.40;;;31.10;45.10;;;;;;4973529;28;20440;-68
2022/06/15 11:40:32;;;;;;;2.70;1.25;;;31.00;47.10;;;;;;4973138;28;20050;-69
2022/06/15 11:42:59;;;;;;;4.68;2.17;;;30.90;45.10;;;;;;4974250;28;20066;-70
2022/06/15 11:45:41;;;;;;;4.78;1.70;;;31.30;46.40;;;;;;4972950;28;20114;-69
2022/06/15 11:48:14;;;;;;;3.65;1.70;;;32.00;48.80;;;;;;4995939;28;20047;-68
2022/06/15 11:50:57;;;;;;;3.85;1.60;;;32.00;44.60;;;;;;4962408;28;20031;-69
2022/06/15 11:53:26;;;;;;;3.25;1.50;;;31.20;45.00;;;;;;5000827;28;20033;-69
2022/06/15 11:56:18;;;;;;;4.40;1.63;;;31.40;45.00;;;;;;4971765;28;20138;-69
2022/06/15 11:58:57;;;;;;;5.70;1.65;;;31.60;45.70;;;;;;4962381;28;20122;-70
2022/06/15 12:01:46;;;;;;;4.15;1.75;;;31.60;44.60;;;;;;4974341;28;20293;-69
2022/06/15 12:04:36;;;;;;;4.80;1.63;;;31.30;46.40;;;;;;4966459;28;20069;-69
2022/06/15 12:07:32;;;;;;;4.25;2.17;;;31.50;48.10;;;;;;4957446;28;20037;-69
2022/06/15 12:10:27;;;;;;;3.13;1.63;;;32.00;46.90;;;;;;4976747;28;20092;-70
2022/06/15 12:13:19;;;;;;;3.70;1.70;;;32.00;47.50;;;;;;4976164;28;20027;-69
2022/06/15 12:15:50;;;;;;;6.30;1.77;;;32.00;46.10;;;;;;4946981;28;20053;-69
2022/06/15 12:18:30;;;;;;;4.40;1.98;;;31.70;46.80;;;;;;4971611;28;20109;-69
2022/06/15 12:21:25;;;;;;;4.93;1.77;;;31.40;47.90;;;;;;4976657;28;20058;-69
2022/06/15 12:23:56;;;;;;;3.38;1.70;;;31.70;46.30;;;;;;4966495;28;20130;-69
2022/06/15 12:26:37;;;;;;;5.68;1.83;;;31.50;46.70;;;;;;4961168;28;20498;-69
2022/06/15 12:29:26;;;;;;;7.00;2.10;;;31.80;47.90;;;;;;4975784;28;20038;-70
2022/06/15 12:35:10;;;;;;;6.28;1.60;;;31.80;46.30;;;;;;4956292;28;20031;-68
2022/06/15 12:37:53;;;;;;;5.68;1.65;;;32.00;46.80;;;;;;4984757;28;20046;-68
2022/06/15 12:40:30;;;;;;;4.88;1.75;;;32.30;45.50;;;;;;4965624;28;20034;-68
2022/06/15 12:43:33;;;;;;;3.88;1.73;;;32.80;45.20;;;;;;4976357;28;20033;-69
2022/06/15 12:46:10;;;;;;;3.85;1.70;;;32.50;47.70;;;;;;4972642;28;20029;-69
2022/06/15 12:48:59;;;;;;;4.97;1.60;;;32.60;47.50;;;;;;4957156;28;20431;-69
2022/06/15 12:51:44;;;;;;;4.82;1.83;;;32.70;45.90;;;;;;4957168;28;20026;-69
2022/06/15 12:54:18;;;;;;;3.80;1.48;;;32.90;45.70;;;;;;4956980;28;20031;-68
2022/06/15 12:57:13;;;;;;;4.40;1.45;;;33.60;45.90;;;;;;4957415;28;20031;-69
2022/06/15 12:59:56;;;;;;;4.35;1.63;;;33.90;43.90;;;;;;4971386;28;20092;-70
2022/06/15 13:02:38;;;;;;;4.47;1.50;;;34.10;44.30;;;;;;4964170;28;20120;-69
2022/06/15 13:05:14;;;;;;;7.13;1.75;;;33.80;45.40;;;;;;4973029;28;20049;-69
2022/06/15 13:07:42;;;;;;;3.65;1.42;;;34.10;44.40;;;;;;4966203;28;20482;-68
2022/06/15 13:10:08;;;;;;;3.90;1.75;;;33.90;43.90;;;;;;4976449;28;20039;-68
2022/06/15 13:12:44;;;;;;;4.45;1.70;;;34.40;42.50;;;;;;4964894;28;20023;-68
2022/06/15 13:15:53;;;;;;;3.78;1.60;;;34.30;44.10;;;;;;4975807;28;20104;-69
2022/06/15 13:18:37;;;;;;;5.15;1.80;;;34.40;44.40;;;;;;4972204;28;20027;-68
2022/06/15 13:21:04;;;;;;;5.05;1.60;;;34.70;43.10;;;;;;4972606;28;20484;-68
2022/06/15 13:24:06;;;;;;;5.70;2.13;;;34.60;43.20;;;;;;4966342;28;20027;-69
2022/06/15 13:26:38;;;;;;;4.18;1.67;;;34.80;41.60;;;;;;4984828;28;20090;-70
2022/06/15 13:29:06;;;;;;;4.00;1.50;;;35.20;44.00;;;;;;4989022;28;20034;-70
2022/06/15 13:31:40;;;;;;;5.05;1.80;;;35.70;43.10;;;;;;4975663;28;20027;-69
2022/06/15 13:34:25;;;;;;;4.72;1.67;;;35.90;42.30;;;;;;4978613;28;20023;-69
2022/06/15 13:37:22;;;;;;;2.70;1.33;;;35.50;41.40;;;;;;5002163;28;20042;-68
2022/06/15 13:39:53;;;;;;;4.47;1.50;;;35.40;45.10;;;;;;4972298;28;20116;-68
2022/06/15 13:42:46;;;;;;;6.45;1.83;;;35.70;41.80;;;;;;4981787;28;20327;-69
2022/06/15 13:45:21;;;;;;;3.22;1.65;;;35.70;42.80;;;;;;4974076;28;20110;-68